sensor_id;sensor_type;location;lat;lon;timestamp;temperature;humidity
5358;DHT22;2702;51.014;7.170;2023-04-26T00:00:25;5.00;99.90
5358;DHT22;2702;51.014;7.170;2023-04-26T00:02:53;5.00;99.90
5358;DHT22;2702;51.014;7.170;2023-04-26T00:05:20;4.90;99.90
5358;DHT22;2702;51.014;7.170;2023-04-26T00:07:46;4.80;99.90
5358;DHT22;2702;51.014;7.170;2023-04-26T00:10:14;4.70;99.90
5358;DHT22;2702;51.014;7.170;2023-04-26T00:12:41;4.80;99.90
5358;DHT22;2702;51.014;7.170;2023-04-26T00:15:08;4.70;99.90
5358;DHT22;2702;51.014;7.170;2023-04-26T00:17:34;4.70;99.90
5358;DHT22;2702;51.014;7.170;2023-04-26T00:20:00;4.70;99.90
5358;DHT22;2702;51.014;7.170;2023-04-26T00:22:26;4.70;99.90
5358;DHT22;2702;51.014;7.170;2023-04-26T00:24:52;4.60;99.90
5358;DHT22;2702;51.014;7.170;2023-04-26T00:27:18;4.60;99.90
5358;DHT22;2702;51.014;7.170;2023-04-26T00:29:44;4.60;99.90
5358;DHT22;2702;51.014;7.170;2023-04-26T00:32:09;4.50;99.90
5358;DHT22;2702;51.014;7.170;2023-04-26T00:34:36;4.50;99.90
5358;DHT22;2702;51.014;7.170;2023-04-26T00:37:03;4.50;99.90
5358;DHT22;2702;51.014;7.170;2023-04-26T00:39:30;4.50;99.90
5358;DHT22;2702;51.014;7.170;2023-04-26T00:41:56;4.50;99.90
5358;DHT22;2702;51.014;7.170;2023-04-26T00:44:22;4.50;99.90
5358;DHT22;2702;51.014;7.170;2023-04-26T00:46:51;4.40;99.90
5358;DHT22;2702;51.014;7.170;2023-04-26T00:49:19;4.40;99.90
5358;DHT22;2702;51.014;7.170;2023-04-26T00:51:47;4.30;99.90
5358;DHT22;2702;51.014;7.170;2023-04-26T00:54:13;4.40;99.90
5358;DHT22;2702;51.014;7.170;2023-04-26T00:56:41;4.30;99.90
5358;DHT22;2702;51.014;7.170;2023-04-26T00:59:07;4.30;99.90
5358;DHT22;2702;51.014;7.170;2023-04-26T01:01:33;4.30;99.90
5358;DHT22;2702;51.014;7.170;2023-04-26T01:04:00;4.20;99.90
5358;DHT22;2702;51.014;7.170;2023-04-26T01:06:32;4.20;99.90
5358;DHT22;2702;51.014;7.170;2023-04-26T01:09:02;4.20;99.90
5358;DHT22;2702;51.014;7.170;2023-04-26T01:11:36;4.10;99.90
5358;DHT22;2702;51.014;7.170;2023-04-26T01:14:04;4.10;99.90
5358;DHT22;2702;51.014;7.170;2023-04-26T01:16:30;4.10;99.90
5358;DHT22;2702;51.014;7.170;2023-04-26T01:18:57;4.00;99.90
5358;DHT22;2702;51.014;7.170;2023-04-26T01:21:24;4.00;99.90
5358;DHT22;2702;51.014;7.170;2023-04-26T01:23:51;3.90;99.90
5358;DHT22;2702;51.014;7.170;2023-04-26T01:26:17;3.90;99.90
5358;DHT22;2702;51.014;7.170;2023-04-26T01:28:43;3.90;99.90
5358;DHT22;2702;51.014;7.170;2023-04-26T01:31:11;3.90;99.90
5358;DHT22;2702;51.014;7.170;2023-04-26T01:33:37;4.00;99.90
5358;DHT22;2702;51.014;7.170;2023-04-26T01:36:08;4.00;99.90
5358;DHT22;2702;51.014;7.170;2023-04-26T01:38:35;4.00;99.90
5358;DHT22;2702;51.014;7.170;2023-04-26T01:41:01;3.90;99.90
5358;DHT22;2702;51.014;7.170;2023-04-26T01:43:27;4.00;99.90
5358;DHT22;2702;51.014;7.170;2023-04-26T01:45:53;4.00;99.90
5358;DHT22;2702;51.014;7.170;2023-04-26T01:48:19;4.00;99.90
5358;DHT22;2702;51.014;7.170;2023-04-26T01:50:44;4.00;99.90
5358;DHT22;2702;51.014;7.170;2023-04-26T01:53:10;4.00;99.90
5358;DHT22;2702;51.014;7.170;2023-04-26T01:55:36;4.10;99.90
5358;DHT22;2702;51.014;7.170;2023-04-26T01:58:02;4.00;99.90
5358;DHT22;2702;51.014;7.170;2023-04-26T02:00:29;3.90;99.90
5358;DHT22;2702;51.014;7.170;2023-04-26T02:02:55;3.90;99.90
5358;DHT22;2702;51.014;7.170;2023-04-26T02:05:21;3.80;99.90
5358;DHT22;2702;51.014;7.170;2023-04-26T02:07:47;3.80;99.90
5358;DHT22;2702;51.014;7.170;2023-04-26T02:10:13;3.70;99.90
5358;DHT22;2702;51.014;7.170;2023-04-26T02:12:39;3.60;99.90
5358;DHT22;2702;51.014;7.170;2023-04-26T02:15:05;3.50;99.90
5358;DHT22;2702;51.014;7.170;2023-04-26T02:17:32;3.60;99.90
5358;DHT22;2702;51.014;7.170;2023-04-26T02:19:58;3.50;99.90
5358;DHT22;2702;51.014;7.170;2023-04-26T02:22:24;3.50;99.90
5358;DHT22;2702;51.014;7.170;2023-04-26T02:24:51;3.40;99.90
5358;DHT22;2702;51.014;7.170;2023-04-26T02:27:18;3.30;99.90
5358;DHT22;2702;51.014;7.170;2023-04-26T02:29:44;3.30;99.90
5358;DHT22;2702;51.014;7.170;2023-04-26T02:32:14;3.30;99.90
5358;DHT22;2702;51.014;7.170;2023-04-26T02:34:41;3.30;99.90
5358;DHT22;2702;51.014;7.170;2023-04-26T02:37:07;3.30;99.90
5358;DHT22;2702;51.014;7.170;2023-04-26T02:39:33;3.30;99.90
5358;DHT22;2702;51.014;7.170;2023-04-26T02:41:59;3.30;99.90
5358;DHT22;2702;51.014;7.170;2023-04-26T02:44:28;3.30;99.90
5358;DHT22;2702;51.014;7.170;2023-04-26T02:46:56;3.20;99.90
5358;DHT22;2702;51.014;7.170;2023-04-26T02:49:22;3.20;99.90
5358;DHT22;2702;51.014;7.170;2023-04-26T02:51:48;3.10;99.90
5358;DHT22;2702;51.014;7.170;2023-04-26T02:54:14;3.10;99.90
5358;DHT22;2702;51.014;7.170;2023-04-26T02:56:40;3.20;99.90
5358;DHT22;2702;51.014;7.170;2023-04-26T02:59:06;3.10;99.90
5358;DHT22;2702;51.014;7.170;2023-04-26T03:01:32;3.10;99.90
5358;DHT22;2702;51.014;7.170;2023-04-26T03:03:58;3.10;99.90
5358;DHT22;2702;51.014;7.170;2023-04-26T03:06:24;3.10;99.90
5358;DHT22;2702;51.014;7.170;2023-04-26T03:08:50;3.20;99.90
5358;DHT22;2702;51.014;7.170;2023-04-26T03:11:15;3.20;99.90
5358;DHT22;2702;51.014;7.170;2023-04-26T03:13:41;3.10;99.90
5358;DHT22;2702;51.014;7.170;2023-04-26T03:16:07;3.10;99.90
5358;DHT22;2702;51.014;7.170;2023-04-26T03:18:33;3.20;99.90
5358;DHT22;2702;51.014;7.170;2023-04-26T03:20:59;3.10;99.90
5358;DHT22;2702;51.014;7.170;2023-04-26T03:23:25;3.20;99.90
5358;DHT22;2702;51.014;7.170;2023-04-26T03:25:51;3.10;99.90
5358;DHT22;2702;51.014;7.170;2023-04-26T03:28:17;3.10;99.90
5358;DHT22;2702;51.014;7.170;2023-04-26T03:30:43;3.10;99.90
5358;DHT22;2702;51.014;7.170;2023-04-26T03:33:09;3.10;99.90
5358;DHT22;2702;51.014;7.170;2023-04-26T03:35:35;3.10;99.90
5358;DHT22;2702;51.014;7.170;2023-04-26T03:38:01;3.10;99.90
5358;DHT22;2702;51.014;7.170;2023-04-26T03:40:27;3.10;99.90
5358;DHT22;2702;51.014;7.170;2023-04-26T03:42:53;3.10;99.90
5358;DHT22;2702;51.014;7.170;2023-04-26T03:45:18;3.10;99.90
5358;DHT22;2702;51.014;7.170;2023-04-26T03:47:45;3.10;99.90
5358;DHT22;2702;51.014;7.170;2023-04-26T03:50:11;3.10;99.90
5358;DHT22;2702;51.014;7.170;2023-04-26T03:52:37;3.10;99.90
5358;DHT22;2702;51.014;7.170;2023-04-26T03:55:03;3.10;99.90
5358;DHT22;2702;51.014;7.170;2023-04-26T03:57:29;3.10;99.90
5358;DHT22;2702;51.014;7.170;2023-04-26T03:59:55;3.10;99.90
5358;DHT22;2702;51.014;7.170;2023-04-26T04:02:20;3.10;99.90
5358;DHT22;2702;51.014;7.170;2023-04-26T04:04:46;3.00;99.90
5358;DHT22;2702;51.014;7.170;2023-04-26T04:07:12;3.00;99.90
5358;DHT22;2702;51.014;7.170;2023-04-26T04:09:38;3.00;99.90
5358;DHT22;2702;51.014;7.170;2023-04-26T04:12:04;3.00;99.90
5358;DHT22;2702;51.014;7.170;2023-04-26T04:14:30;3.00;99.90
5358;DHT22;2702;51.014;7.170;2023-04-26T04:16:56;3.00;99.90
5358;DHT22;2702;51.014;7.170;2023-04-26T04:19:24;2.90;99.90
5358;DHT22;2702;51.014;7.170;2023-04-26T04:21:49;2.90;99.90
5358;DHT22;2702;51.014;7.170;2023-04-26T04:24:16;2.80;99.90
5358;DHT22;2702;51.014;7.170;2023-04-26T04:26:42;2.80;99.90
5358;DHT22;2702;51.014;7.170;2023-04-26T04:29:08;2.70;99.90
5358;DHT22;2702;51.014;7.170;2023-04-26T04:31:37;2.70;99.90
5358;DHT22;2702;51.014;7.170;2023-04-26T04:34:04;2.70;99.90
5358;DHT22;2702;51.014;7.170;2023-04-26T04:36:30;2.70;99.90
5358;DHT22;2702;51.014;7.170;2023-04-26T04:38:57;2.60;99.90
5358;DHT22;2702;51.014;7.170;2023-04-26T04:41:22;2.60;99.90
5358;DHT22;2702;51.014;7.170;2023-04-26T04:43:48;2.70;99.90
5358;DHT22;2702;51.014;7.170;2023-04-26T04:46:14;2.80;99.90
5358;DHT22;2702;51.014;7.170;2023-04-26T04:48:41;2.80;99.90
5358;DHT22;2702;51.014;7.170;2023-04-26T04:51:08;2.80;99.90
5358;DHT22;2702;51.014;7.170;2023-04-26T04:53:34;2.80;99.90
5358;DHT22;2702;51.014;7.170;2023-04-26T04:56:00;2.80;99.90
5358;DHT22;2702;51.014;7.170;2023-04-26T04:58:26;2.70;99.90
5358;DHT22;2702;51.014;7.170;2023-04-26T05:00:52;2.60;99.90
5358;DHT22;2702;51.014;7.170;2023-04-26T05:03:21;2.50;99.90
5358;DHT22;2702;51.014;7.170;2023-04-26T05:05:47;2.40;99.90
5358;DHT22;2702;51.014;7.170;2023-04-26T05:08:13;2.40;99.90
5358;DHT22;2702;51.014;7.170;2023-04-26T05:10:38;2.40;99.90
5358;DHT22;2702;51.014;7.170;2023-04-26T05:13:04;2.40;99.90
5358;DHT22;2702;51.014;7.170;2023-04-26T05:15:30;2.40;99.90
5358;DHT22;2702;51.014;7.170;2023-04-26T05:17:56;2.50;99.90
5358;DHT22;2702;51.014;7.170;2023-04-26T05:20:24;2.60;99.90
5358;DHT22;2702;51.014;7.170;2023-04-26T05:22:50;2.70;99.90
5358;DHT22;2702;51.014;7.170;2023-04-26T05:25:16;2.70;99.90
5358;DHT22;2702;51.014;7.170;2023-04-26T05:27:42;2.80;99.90
5358;DHT22;2702;51.014;7.170;2023-04-26T05:30:10;2.80;99.90
5358;DHT22;2702;51.014;7.170;2023-04-26T05:32:36;2.80;99.90
5358;DHT22;2702;51.014;7.170;2023-04-26T05:35:02;2.90;99.90
5358;DHT22;2702;51.014;7.170;2023-04-26T05:37:28;3.00;99.90
5358;DHT22;2702;51.014;7.170;2023-04-26T05:39:54;3.00;99.90
5358;DHT22;2702;51.014;7.170;2023-04-26T05:42:19;3.10;99.90
5358;DHT22;2702;51.014;7.170;2023-04-26T05:44:45;3.10;99.90
5358;DHT22;2702;51.014;7.170;2023-04-26T05:47:11;3.20;99.90
5358;DHT22;2702;51.014;7.170;2023-04-26T05:49:37;3.30;99.90
5358;DHT22;2702;51.014;7.170;2023-04-26T05:52:03;3.30;99.90
5358;DHT22;2702;51.014;7.170;2023-04-26T05:54:29;3.40;99.90
5358;DHT22;2702;51.014;7.170;2023-04-26T05:56:55;3.40;99.90
5358;DHT22;2702;51.014;7.170;2023-04-26T05:59:21;3.40;99.90
5358;DHT22;2702;51.014;7.170;2023-04-26T06:01:46;3.50;99.90
5358;DHT22;2702;51.014;7.170;2023-04-26T06:04:12;3.50;99.90
5358;DHT22;2702;51.014;7.170;2023-04-26T06:06:38;3.60;99.90
5358;DHT22;2702;51.014;7.170;2023-04-26T06:09:04;3.70;99.90
5358;DHT22;2702;51.014;7.170;2023-04-26T06:11:30;3.70;99.90
5358;DHT22;2702;51.014;7.170;2023-04-26T06:13:56;3.80;99.90
5358;DHT22;2702;51.014;7.170;2023-04-26T06:16:22;3.90;99.90
5358;DHT22;2702;51.014;7.170;2023-04-26T06:18:47;3.90;99.90
5358;DHT22;2702;51.014;7.170;2023-04-26T06:21:13;4.00;99.90
5358;DHT22;2702;51.014;7.170;2023-04-26T06:23:39;4.10;99.90
5358;DHT22;2702;51.014;7.170;2023-04-26T06:26:05;4.10;99.90
5358;DHT22;2702;51.014;7.170;2023-04-26T06:28:31;4.30;99.90
5358;DHT22;2702;51.014;7.170;2023-04-26T06:30:57;4.30;99.90
5358;DHT22;2702;51.014;7.170;2023-04-26T06:33:23;4.40;99.90
5358;DHT22;2702;51.014;7.170;2023-04-26T06:35:49;4.50;99.90
5358;DHT22;2702;51.014;7.170;2023-04-26T06:38:15;4.60;99.90
5358;DHT22;2702;51.014;7.170;2023-04-26T06:40:41;4.80;99.90
5358;DHT22;2702;51.014;7.170;2023-04-26T06:43:07;4.90;99.90
5358;DHT22;2702;51.014;7.170;2023-04-26T06:45:33;5.00;99.90
5358;DHT22;2702;51.014;7.170;2023-04-26T06:47:59;5.20;99.90
5358;DHT22;2702;51.014;7.170;2023-04-26T06:50:29;5.20;99.90
5358;DHT22;2702;51.014;7.170;2023-04-26T06:52:55;5.40;99.90
5358;DHT22;2702;51.014;7.170;2023-04-26T06:55:21;5.50;99.90
5358;DHT22;2702;51.014;7.170;2023-04-26T06:57:48;5.60;99.90
5358;DHT22;2702;51.014;7.170;2023-04-26T07:00:14;5.80;99.90
5358;DHT22;2702;51.014;7.170;2023-04-26T07:02:40;6.00;99.90
5358;DHT22;2702;51.014;7.170;2023-04-26T07:05:06;6.10;99.90
5358;DHT22;2702;51.014;7.170;2023-04-26T07:07:34;6.10;99.90
5358;DHT22;2702;51.014;7.170;2023-04-26T07:10:02;6.10;99.90
5358;DHT22;2702;51.014;7.170;2023-04-26T07:12:28;6.10;99.90
5358;DHT22;2702;51.014;7.170;2023-04-26T07:14:54;6.20;99.90
5358;DHT22;2702;51.014;7.170;2023-04-26T07:17:20;6.40;99.90
5358;DHT22;2702;51.014;7.170;2023-04-26T07:19:46;6.50;99.90
5358;DHT22;2702;51.014;7.170;2023-04-26T07:22:12;6.60;99.90
5358;DHT22;2702;51.014;7.170;2023-04-26T07:24:38;6.50;99.90
5358;DHT22;2702;51.014;7.170;2023-04-26T07:27:04;6.40;99.90
5358;DHT22;2702;51.014;7.170;2023-04-26T07:29:30;6.60;99.90
5358;DHT22;2702;51.014;7.170;2023-04-26T07:31:56;6.70;99.90
5358;DHT22;2702;51.014;7.170;2023-04-26T07:34:23;6.60;99.90
5358;DHT22;2702;51.014;7.170;2023-04-26T07:36:49;6.50;99.90
5358;DHT22;2702;51.014;7.170;2023-04-26T07:39:15;6.70;99.90
5358;DHT22;2702;51.014;7.170;2023-04-26T07:41:41;6.60;99.90
5358;DHT22;2702;51.014;7.170;2023-04-26T07:44:07;6.60;99.90
5358;DHT22;2702;51.014;7.170;2023-04-26T07:46:33;6.60;99.90
5358;DHT22;2702;51.014;7.170;2023-04-26T07:48:59;6.80;99.90
5358;DHT22;2702;51.014;7.170;2023-04-26T07:51:25;6.80;99.90
5358;DHT22;2702;51.014;7.170;2023-04-26T07:53:52;6.80;99.90
5358;DHT22;2702;51.014;7.170;2023-04-26T07:56:17;6.60;99.90
5358;DHT22;2702;51.014;7.170;2023-04-26T07:58:43;6.70;99.90
5358;DHT22;2702;51.014;7.170;2023-04-26T08:01:09;6.80;99.90
5358;DHT22;2702;51.014;7.170;2023-04-26T08:03:36;6.60;99.90
5358;DHT22;2702;51.014;7.170;2023-04-26T08:06:02;6.80;99.90
5358;DHT22;2702;51.014;7.170;2023-04-26T08:08:28;6.80;99.90
5358;DHT22;2702;51.014;7.170;2023-04-26T08:10:55;6.90;99.90
5358;DHT22;2702;51.014;7.170;2023-04-26T08:13:21;7.00;99.90
5358;DHT22;2702;51.014;7.170;2023-04-26T08:15:47;7.10;99.90
5358;DHT22;2702;51.014;7.170;2023-04-26T08:18:13;7.20;99.90
5358;DHT22;2702;51.014;7.170;2023-04-26T08:20:39;7.50;99.90
5358;DHT22;2702;51.014;7.170;2023-04-26T08:23:05;7.50;99.90
5358;DHT22;2702;51.014;7.170;2023-04-26T08:25:31;7.30;99.90
5358;DHT22;2702;51.014;7.170;2023-04-26T08:27:59;7.50;99.90
5358;DHT22;2702;51.014;7.170;2023-04-26T08:30:25;7.70;99.90
5358;DHT22;2702;51.014;7.170;2023-04-26T08:32:51;7.90;99.90
5358;DHT22;2702;51.014;7.170;2023-04-26T08:35:17;8.10;99.90
5358;DHT22;2702;51.014;7.170;2023-04-26T08:37:43;8.30;99.90
5358;DHT22;2702;51.014;7.170;2023-04-26T08:40:09;8.50;99.90
5358;DHT22;2702;51.014;7.170;2023-04-26T08:42:39;8.40;99.90
5358;DHT22;2702;51.014;7.170;2023-04-26T08:45:09;8.50;99.90
5358;DHT22;2702;51.014;7.170;2023-04-26T08:47:50;8.50;99.90
5358;DHT22;2702;51.014;7.170;2023-04-26T08:50:21;8.80;99.90
5358;DHT22;2702;51.014;7.170;2023-04-26T08:52:50;8.80;99.90
5358;DHT22;2702;51.014;7.170;2023-04-26T08:55:17;8.90;99.90
5358;DHT22;2702;51.014;7.170;2023-04-26T08:57:49;8.80;99.90
5358;DHT22;2702;51.014;7.170;2023-04-26T09:00:16;8.70;99.90
5358;DHT22;2702;51.014;7.170;2023-04-26T09:02:47;8.80;99.90
5358;DHT22;2702;51.014;7.170;2023-04-26T09:05:13;8.80;99.90
5358;DHT22;2702;51.014;7.170;2023-04-26T09:07:44;8.80;99.90
5358;DHT22;2702;51.014;7.170;2023-04-26T09:10:12;8.80;99.90
5358;DHT22;2702;51.014;7.170;2023-04-26T09:12:39;9.00;99.90
5358;DHT22;2702;51.014;7.170;2023-04-26T09:15:06;8.70;99.90
5358;DHT22;2702;51.014;7.170;2023-04-26T09:17:33;8.70;99.90
5358;DHT22;2702;51.014;7.170;2023-04-26T09:20:00;8.50;99.90
5358;DHT22;2702;51.014;7.170;2023-04-26T09:22:36;8.70;99.90
5358;DHT22;2702;51.014;7.170;2023-04-26T09:25:03;9.00;99.90
5358;DHT22;2702;51.014;7.170;2023-04-26T09:27:38;9.10;99.90
5358;DHT22;2702;51.014;7.170;2023-04-26T09:30:11;9.30;99.90
5358;DHT22;2702;51.014;7.170;2023-04-26T09:32:56;9.50;99.90
5358;DHT22;2702;51.014;7.170;2023-04-26T09:35:37;9.70;99.90
5358;DHT22;2702;51.014;7.170;2023-04-26T09:38:21;9.90;99.90
5358;DHT22;2702;51.014;7.170;2023-04-26T09:40:48;9.70;99.90
5358;DHT22;2702;51.014;7.170;2023-04-26T09:43:17;9.60;99.90
5358;DHT22;2702;51.014;7.170;2023-04-26T09:45:51;9.70;99.90
5358;DHT22;2702;51.014;7.170;2023-04-26T09:48:28;9.80;99.90
5358;DHT22;2702;51.014;7.170;2023-04-26T09:51:11;9.70;99.90
5358;DHT22;2702;51.014;7.170;2023-04-26T09:53:37;9.80;99.90
5358;DHT22;2702;51.014;7.170;2023-04-26T09:56:10;10.00;99.90
5358;DHT22;2702;51.014;7.170;2023-04-26T09:58:57;10.10;99.90
5358;DHT22;2702;51.014;7.170;2023-04-26T10:01:25;10.10;99.90
5358;DHT22;2702;51.014;7.170;2023-04-26T10:03:58;10.30;99.90
5358;DHT22;2702;51.014;7.170;2023-04-26T10:06:26;10.30;99.90
5358;DHT22;2702;51.014;7.170;2023-04-26T10:08:53;9.60;99.90
5358;DHT22;2702;51.014;7.170;2023-04-26T10:11:21;9.90;99.90
5358;DHT22;2702;51.014;7.170;2023-04-26T10:13:49;10.10;99.90
5358;DHT22;2702;51.014;7.170;2023-04-26T10:16:16;10.40;99.90
5358;DHT22;2702;51.014;7.170;2023-04-26T10:18:42;10.60;99.90
5358;DHT22;2702;51.014;7.170;2023-04-26T10:21:18;10.60;99.90
5358;DHT22;2702;51.014;7.170;2023-04-26T10:23:46;10.30;99.90
5358;DHT22;2702;51.014;7.170;2023-04-26T10:29:23;10.40;99.90
5358;DHT22;2702;51.014;7.170;2023-04-26T10:34:32;10.00;99.90
5358;DHT22;2702;51.014;7.170;2023-04-26T10:37:15;9.40;99.90
5358;DHT22;2702;51.014;7.170;2023-04-26T10:39:47;9.50;99.90
5358;DHT22;2702;51.014;7.170;2023-04-26T10:42:31;9.80;99.90
5358;DHT22;2702;51.014;7.170;2023-04-26T10:44:58;10.00;99.90
5358;DHT22;2702;51.014;7.170;2023-04-26T10:47:34;9.90;99.90
5358;DHT22;2702;51.014;7.170;2023-04-26T10:50:09;10.30;99.90
5358;DHT22;2702;51.014;7.170;2023-04-26T10:53:04;10.50;99.90
5358;DHT22;2702;51.014;7.170;2023-04-26T10:55:40;10.80;99.90
5358;DHT22;2702;51.014;7.170;2023-04-26T10:58:45;11.20;99.90
5358;DHT22;2702;51.014;7.170;2023-04-26T11:01:18;11.60;99.90
5358;DHT22;2702;51.014;7.170;2023-04-26T11:04:11;11.50;99.90
5358;DHT22;2702;51.014;7.170;2023-04-26T11:06:54;11.30;99.90
5358;DHT22;2702;51.014;7.170;2023-04-26T11:09:39;11.40;99.90
5358;DHT22;2702;51.014;7.170;2023-04-26T11:12:10;11.30;99.90
5358;DHT22;2702;51.014;7.170;2023-04-26T11:14:37;11.50;99.90
5358;DHT22;2702;51.014;7.170;2023-04-26T11:17:06;11.50;99.90
5358;DHT22;2702;51.014;7.170;2023-04-26T11:19:33;10.90;99.90
5358;DHT22;2702;51.014;7.170;2023-04-26T11:22:00;11.20;99.90
5358;DHT22;2702;51.014;7.170;2023-04-26T11:24:27;11.30;99.90
5358;DHT22;2702;51.014;7.170;2023-04-26T11:26:55;11.60;99.90
5358;DHT22;2702;51.014;7.170;2023-04-26T11:29:21;11.60;99.90
5358;DHT22;2702;51.014;7.170;2023-04-26T11:31:55;11.50;99.90
5358;DHT22;2702;51.014;7.170;2023-04-26T11:36:57;11.00;99.90
5358;DHT22;2702;51.014;7.170;2023-04-26T11:39:23;10.70;99.90
5358;DHT22;2702;51.014;7.170;2023-04-26T11:41:49;10.50;99.90
5358;DHT22;2702;51.014;7.170;2023-04-26T11:44:18;10.80;99.90
5358;DHT22;2702;51.014;7.170;2023-04-26T11:46:47;10.40;99.90
5358;DHT22;2702;51.014;7.170;2023-04-26T11:49:14;10.50;99.90
5358;DHT22;2702;51.014;7.170;2023-04-26T11:51:41;10.80;99.90
5358;DHT22;2702;51.014;7.170;2023-04-26T11:54:08;11.00;99.90
5358;DHT22;2702;51.014;7.170;2023-04-26T11:56:34;11.40;99.90
5358;DHT22;2702;51.014;7.170;2023-04-26T11:58:59;11.50;99.90
5358;DHT22;2702;51.014;7.170;2023-04-26T12:01:28;11.20;99.90
5358;DHT22;2702;51.014;7.170;2023-04-26T12:03:58;11.30;99.90
5358;DHT22;2702;51.014;7.170;2023-04-26T12:06:40;11.60;99.90
5358;DHT22;2702;51.014;7.170;2023-04-26T12:09:07;11.80;99.90
5358;DHT22;2702;51.014;7.170;2023-04-26T12:11:34;11.90;99.90
5358;DHT22;2702;51.014;7.170;2023-04-26T12:14:00;11.90;99.90
5358;DHT22;2702;51.014;7.170;2023-04-26T12:16:26;11.60;99.90
5358;DHT22;2702;51.014;7.170;2023-04-26T12:18:53;11.00;99.90
5358;DHT22;2702;51.014;7.170;2023-04-26T12:21:22;10.90;99.90
5358;DHT22;2702;51.014;7.170;2023-04-26T12:23:49;11.10;99.90
5358;DHT22;2702;51.014;7.170;2023-04-26T12:26:15;11.40;99.90
5358;DHT22;2702;51.014;7.170;2023-04-26T12:28:42;11.40;99.90
5358;DHT22;2702;51.014;7.170;2023-04-26T12:31:08;11.70;99.90
5358;DHT22;2702;51.014;7.170;2023-04-26T12:33:35;12.00;99.90
5358;DHT22;2702;51.014;7.170;2023-04-26T12:36:11;12.30;99.90
5358;DHT22;2702;51.014;7.170;2023-04-26T12:38:40;12.60;99.90
5358;DHT22;2702;51.014;7.170;2023-04-26T12:41:06;12.90;99.90
5358;DHT22;2702;51.014;7.170;2023-04-26T12:43:32;13.10;99.90
5358;DHT22;2702;51.014;7.170;2023-04-26T12:45:59;12.10;99.90
5358;DHT22;2702;51.014;7.170;2023-04-26T12:48:26;11.20;99.90
5358;DHT22;2702;51.014;7.170;2023-04-26T12:50:52;11.40;99.90
5358;DHT22;2702;51.014;7.170;2023-04-26T12:53:18;11.30;99.90
5358;DHT22;2702;51.014;7.170;2023-04-26T12:55:44;11.20;99.90
5358;DHT22;2702;51.014;7.170;2023-04-26T12:58:10;11.70;99.90
5358;DHT22;2702;51.014;7.170;2023-04-26T13:00:36;12.00;99.90
5358;DHT22;2702;51.014;7.170;2023-04-26T13:03:02;12.40;99.90
5358;DHT22;2702;51.014;7.170;2023-04-26T13:05:28;12.70;99.90
5358;DHT22;2702;51.014;7.170;2023-04-26T13:07:54;12.70;99.90
5358;DHT22;2702;51.014;7.170;2023-04-26T13:10:21;12.40;99.90
5358;DHT22;2702;51.014;7.170;2023-04-26T13:12:46;11.90;99.90
5358;DHT22;2702;51.014;7.170;2023-04-26T13:15:12;12.10;99.90
5358;DHT22;2702;51.014;7.170;2023-04-26T13:17:38;12.00;99.90
5358;DHT22;2702;51.014;7.170;2023-04-26T13:20:05;11.80;99.90
5358;DHT22;2702;51.014;7.170;2023-04-26T13:22:32;12.00;99.90
5358;DHT22;2702;51.014;7.170;2023-04-26T13:24:58;12.10;99.90
5358;DHT22;2702;51.014;7.170;2023-04-26T13:27:24;12.10;99.90
5358;DHT22;2702;51.014;7.170;2023-04-26T13:29:50;12.50;99.90
5358;DHT22;2702;51.014;7.170;2023-04-26T13:32:17;12.80;99.90
5358;DHT22;2702;51.014;7.170;2023-04-26T13:34:43;13.20;99.90
5358;DHT22;2702;51.014;7.170;2023-04-26T13:37:10;13.40;99.90
5358;DHT22;2702;51.014;7.170;2023-04-26T13:39:36;13.30;99.90
5358;DHT22;2702;51.014;7.170;2023-04-26T13:42:02;13.60;99.90
5358;DHT22;2702;51.014;7.170;2023-04-26T13:44:30;13.90;99.90
5358;DHT22;2702;51.014;7.170;2023-04-26T13:46:56;14.10;99.90
5358;DHT22;2702;51.014;7.170;2023-04-26T13:49:23;13.90;99.90
5358;DHT22;2702;51.014;7.170;2023-04-26T13:51:51;13.00;99.90
5358;DHT22;2702;51.014;7.170;2023-04-26T13:54:19;13.50;99.90
5358;DHT22;2702;51.014;7.170;2023-04-26T13:56:46;13.80;99.90
5358;DHT22;2702;51.014;7.170;2023-04-26T13:59:13;14.20;99.90
5358;DHT22;2702;51.014;7.170;2023-04-26T14:01:39;14.20;99.90
5358;DHT22;2702;51.014;7.170;2023-04-26T14:04:05;13.80;99.90
5358;DHT22;2702;51.014;7.170;2023-04-26T14:06:32;12.60;99.90
5358;DHT22;2702;51.014;7.170;2023-04-26T14:08:59;11.80;99.90
5358;DHT22;2702;51.014;7.170;2023-04-26T14:11:25;11.90;99.90
5358;DHT22;2702;51.014;7.170;2023-04-26T14:13:52;11.80;99.90
5358;DHT22;2702;51.014;7.170;2023-04-26T14:16:22;12.00;99.90
5358;DHT22;2702;51.014;7.170;2023-04-26T14:18:49;11.60;99.90
5358;DHT22;2702;51.014;7.170;2023-04-26T14:21:15;11.70;99.90
5358;DHT22;2702;51.014;7.170;2023-04-26T14:23:42;11.90;99.90
5358;DHT22;2702;51.014;7.170;2023-04-26T14:26:07;11.90;99.90
5358;DHT22;2702;51.014;7.170;2023-04-26T14:28:33;12.00;99.90
5358;DHT22;2702;51.014;7.170;2023-04-26T14:31:01;11.90;99.90
5358;DHT22;2702;51.014;7.170;2023-04-26T14:33:27;11.40;99.90
5358;DHT22;2702;51.014;7.170;2023-04-26T14:35:53;11.60;99.90
5358;DHT22;2702;51.014;7.170;2023-04-26T14:38:19;11.50;99.90
5358;DHT22;2702;51.014;7.170;2023-04-26T14:40:45;11.70;99.90
5358;DHT22;2702;51.014;7.170;2023-04-26T14:43:11;12.10;99.90
5358;DHT22;2702;51.014;7.170;2023-04-26T14:45:37;12.30;99.90
5358;DHT22;2702;51.014;7.170;2023-04-26T14:48:06;11.80;99.90
5358;DHT22;2702;51.014;7.170;2023-04-26T14:50:32;11.80;99.90
5358;DHT22;2702;51.014;7.170;2023-04-26T14:52:58;11.90;99.90
5358;DHT22;2702;51.014;7.170;2023-04-26T14:55:24;11.30;99.90
5358;DHT22;2702;51.014;7.170;2023-04-26T14:57:52;11.60;99.90
5358;DHT22;2702;51.014;7.170;2023-04-26T15:00:18;12.20;99.90
5358;DHT22;2702;51.014;7.170;2023-04-26T15:02:44;12.50;99.90
5358;DHT22;2702;51.014;7.170;2023-04-26T15:05:11;12.50;99.90
5358;DHT22;2702;51.014;7.170;2023-04-26T15:07:38;12.60;99.90
5358;DHT22;2702;51.014;7.170;2023-04-26T15:10:05;12.80;99.90
5358;DHT22;2702;51.014;7.170;2023-04-26T15:12:33;12.80;99.90
5358;DHT22;2702;51.014;7.170;2023-04-26T15:14:59;12.60;99.90
5358;DHT22;2702;51.014;7.170;2023-04-26T15:17:26;12.20;99.90
5358;DHT22;2702;51.014;7.170;2023-04-26T15:19:53;12.20;99.90
5358;DHT22;2702;51.014;7.170;2023-04-26T15:22:20;12.40;99.90
5358;DHT22;2702;51.014;7.170;2023-04-26T15:24:46;12.30;99.90
5358;DHT22;2702;51.014;7.170;2023-04-26T15:27:14;12.00;99.90
5358;DHT22;2702;51.014;7.170;2023-04-26T15:29:40;11.90;99.90
5358;DHT22;2702;51.014;7.170;2023-04-26T15:32:06;12.00;99.90
5358;DHT22;2702;51.014;7.170;2023-04-26T15:34:39;12.20;99.90
5358;DHT22;2702;51.014;7.170;2023-04-26T15:37:05;12.30;99.90
5358;DHT22;2702;51.014;7.170;2023-04-26T15:39:31;12.40;99.90
5358;DHT22;2702;51.014;7.170;2023-04-26T15:41:57;12.30;99.90
5358;DHT22;2702;51.014;7.170;2023-04-26T15:44:23;12.10;99.90
5358;DHT22;2702;51.014;7.170;2023-04-26T15:46:49;12.30;99.90
5358;DHT22;2702;51.014;7.170;2023-04-26T15:49:15;12.20;99.90
5358;DHT22;2702;51.014;7.170;2023-04-26T15:51:41;12.10;99.90
5358;DHT22;2702;51.014;7.170;2023-04-26T15:54:07;12.20;99.90
5358;DHT22;2702;51.014;7.170;2023-04-26T15:56:33;12.30;99.90
5358;DHT22;2702;51.014;7.170;2023-04-26T15:58:59;12.40;99.90
5358;DHT22;2702;51.014;7.170;2023-04-26T16:01:27;12.50;99.90
5358;DHT22;2702;51.014;7.170;2023-04-26T16:03:53;12.60;99.90
5358;DHT22;2702;51.014;7.170;2023-04-26T16:06:19;12.60;99.90
5358;DHT22;2702;51.014;7.170;2023-04-26T16:08:45;12.50;99.90
5358;DHT22;2702;51.014;7.170;2023-04-26T16:11:11;12.10;99.90
5358;DHT22;2702;51.014;7.170;2023-04-26T16:13:37;11.90;99.90
5358;DHT22;2702;51.014;7.170;2023-04-26T16:16:07;12.10;99.90
5358;DHT22;2702;51.014;7.170;2023-04-26T16:18:36;12.10;99.90
5358;DHT22;2702;51.014;7.170;2023-04-26T16:21:05;12.00;99.90